Time;durP1;ratioP1;P1;durP2;ratioP2;P2;SDS_P1;SDS_P2;PMS_P1;PMS_P2;Temp;Humidity;BMP_temperature;BMP_pressure;BME280_temperature;BME280_humidity;BME280_pressure;Samples;Min_cycle;Max_cycle;Signal;HPM_P1;HPM_P2
2022/10/31 00:01:52;;;;;;;;;;;;;;;25.00;47.54;94742.75;5097227;28;7144;-60
2022/10/31 00:04:20;;;;;;;;;;;;;;;25.00;47.43;94745.50;5071988;28;7429;-60
2022/10/31 00:06:46;;;;;;;;;;;;;;;24.99;47.00;94741.25;5073119;28;9148;-60
2022/10/31 00:09:15;;;;;;;;;;;;;;;25.00;47.10;94751.00;5087574;28;7087;-59
2022/10/31 00:11:42;;;;;;;;;;;;;;;25.00;47.39;94738.00;5092985;28;7032;-60
2022/10/31 00:14:11;;;;;;;;;;;;;;;25.01;46.96;94739.50;5072791;28;7350;-60
2022/10/31 00:16:37;;;;;;;;;;;;;;;25.01;46.91;94745.00;5085132;28;8430;-60
2022/10/31 00:19:06;;;;;;;;;;;;;;;25.00;47.34;94742.75;5090399;28;6908;-60
2022/10/31 00:21:32;;;;;;;;;;;;;;;24.98;47.68;94726.75;5088469;28;7319;-60
2022/10/31 00:23:59;;;;;;;;;;;;;;;24.99;47.11;94727.50;5071986;28;7056;-59
2022/10/31 00:26:37;;;;;;;;;;;;;;;24.98;46.87;94726.75;5071997;28;6970;-60
2022/10/31 00:29:12;;;;;;;;;;;;;;;24.98;46.96;94734.25;5089075;28;9130;-60
2022/10/31 00:31:39;;;;;;;;;;;;;;;24.96;47.16;94723.75;5099181;28;6980;-60
2022/10/31 00:34:10;;;;;;;;;;;;;;;24.97;47.30;94724.50;5087776;28;7055;-60
2022/10/31 00:36:54;;;;;;;;;;;;;;;24.99;47.66;94722.00;5071540;28;7958;-60
2022/10/31 00:39:22;;;;;;;;;;;;;;;24.98;47.19;94728.75;5072523;28;7184;-60
2022/10/31 00:42:07;;;;;;;;;;;;;;;24.97;47.69;94727.25;5075838;28;7311;-60
2022/10/31 00:44:34;;;;;;;;;;;;;;;24.96;47.45;94723.75;5088473;28;9062;-60
2022/10/31 00:47:00;;;;;;;;;;;;;;;24.97;47.67;94725.22;5077424;28;8736;-60
2022/10/31 00:49:53;;;;;;;;;;;;;;;24.98;47.38;94728.75;5077158;28;7356;-60
2022/10/31 00:52:19;;;;;;;;;;;;;;;24.97;47.35;94724.50;5029402;28;7125;-60
2022/10/31 00:54:47;;;;;;;;;;;;;;;24.97;47.67;94721.75;5009484;28;7853;-60
2022/10/31 00:57:15;;;;;;;;;;;;;;;24.98;47.58;94726.00;4994112;28;7222;-60
2022/10/31 00:59:55;;;;;;;;;;;;;;;24.98;47.45;94717.72;4994465;28;9345;-60
2022/10/31 01:02:23;;;;;;;;;;;;;;;24.97;47.72;94719.72;5007363;28;9056;-60
2022/10/31 01:04:49;;;;;;;;;;;;;;;24.97;47.11;94722.47;5030075;28;7371;-60
2022/10/31 01:07:50;;;;;;;;;;;;;;;24.97;47.37;94721.75;5010347;28;6964;-60
2022/10/31 01:10:45;;;;;;;;;;;;;;;24.96;47.75;94711.97;4955084;28;7457;-60
2022/10/31 01:13:11;;;;;;;;;;;;;;;24.96;46.70;94718.25;4916989;29;7355;-60
2022/10/31 01:15:39;;;;;;;;;;;;;;;24.97;47.72;94713.50;4901873;29;7208;-60
2022/10/31 01:18:07;;;;;;;;;;;;;;;24.95;47.41;94710.47;4899631;29;7090;-60
2022/10/31 01:20:35;;;;;;;;;;;;;;;24.94;47.69;94717.22;4898575;29;7315;-60
2022/10/31 01:23:33;;;;;;;;;;;;;;;24.94;47.69;94720.75;4906623;29;7458;-60
2022/10/31 01:26:03;;;;;;;;;;;;;;;24.92;47.17;94712.25;4845199;29;6979;-60
2022/10/31 01:28:30;;;;;;;;;;;;;;;24.91;46.88;94709.97;4867984;29;7154;-60
2022/10/31 01:31:01;;;;;;;;;;;;;;;24.92;47.42;94712.25;4897998;29;7564;-60
2022/10/31 01:33:27;;;;;;;;;;;;;;;24.91;47.39;94712.72;4882325;29;7259;-60
2022/10/31 01:35:53;;;;;;;;;;;;;;;24.93;47.39;94710.22;4898128;29;7355;-60
2022/10/31 01:38:21;;;;;;;;;;;;;;;24.95;47.29;94715.97;4882602;29;7020;-60
2022/10/31 01:40:56;;;;;;;;;;;;;;;24.94;47.31;94706.22;4897990;29;7061;-60
2022/10/31 01:43:55;;;;;;;;;;;;;;;24.95;46.65;94704.97;4889772;28;8436;-60
2022/10/31 01:46:38;;;;;;;;;;;;;;;24.94;47.02;94709.75;4954688;28;7429;-60
2022/10/31 01:49:52;;;;;;;;;;;;;;;24.94;47.63;94708.97;4966147;28;7338;-60
2022/10/31 01:53:09;;;;;;;;;;;;;;;24.93;46.75;94710.22;4994012;28;6977;-60
2022/10/31 01:56:19;;;;;;;;;;;;;;;24.94;47.25;94703.47;4902597;29;7372;-60
2022/10/31 01:58:58;;;;;;;;;;;;;;;24.92;46.82;94711.47;4935877;29;7286;-60
2022/10/31 02:01:42;;;;;;;;;;;;;;;24.92;47.46;94712.25;4943168;28;7271;-60
2022/10/31 02:04:20;;;;;;;;;;;;;;;24.90;46.78;94705.72;5005371;28;7495;-60
2022/10/31 02:07:18;;;;;;;;;;;;;;;24.91;46.72;94704.47;5013279;28;7864;-60
2022/10/31 02:09:57;;;;;;;;;;;;;;;24.91;47.17;94699.72;4996980;28;8915;-60
2022/10/31 02:12:35;;;;;;;;;;;;;;;24.89;46.72;94695.97;5010932;28;6986;-60
2022/10/31 02:15:03;;;;;;;;;;;;;;;24.88;47.57;94699.97;5005085;28;6994;-60
2022/10/31 02:17:31;;;;;;;;;;;;;;;24.86;47.09;94691.47;4995390;28;7048;-60
2022/10/31 02:20:21;;;;;;;;;;;;;;;24.89;46.74;94693.19;5012840;28;7262;-60
2022/10/31 02:23:08;;;;;;;;;;;;;;;24.89;47.17;94688.47;4993355;28;9537;-60
2022/10/31 02:26:09;;;;;;;;;;;;;;;24.90;46.52;94686.47;4982696;28;9072;-60
2022/10/31 02:28:40;;;;;;;;;;;;;;;24.91;46.59;94682.44;4976270;28;7212;-60
2022/10/31 02:31:35;;;;;;;;;;;;;;;24.92;47.54;94686.72;5011142;28;7348;-60
2022/10/31 02:34:21;;;;;;;;;;;;;;;24.90;46.62;94680.97;5040267;28;6983;-60
2022/10/31 02:37:12;;;;;;;;;;;;;;;24.91;46.86;94687.94;5052051;28;7282;-60
2022/10/31 02:40:26;;;;;;;;;;;;;;;24.89;47.20;94684.94;5035615;28;6946;-60
2022/10/31 02:43:12;;;;;;;;;;;;;;;24.87;47.46;94679.94;5047697;28;7004;-60
2022/10/31 02:46:10;;;;;;;;;;;;;;;24.90;46.60;94683.72;5035425;28;7340;-60
2022/10/31 02:48:41;;;;;;;;;;;;;;;24.88;47.49;94683.47;5039800;28;9022;-60
2022/10/31 02:51:23;;;;;;;;;;;;;;;24.88;46.86;94684.19;5034694;28;9012;-60
2022/10/31 02:54:28;;;;;;;;;;;;;;;24.89;47.28;94676.69;5034793;28;7093;-60
2022/10/31 02:57:13;;;;;;;;;;;;;;;24.89;47.42;94679.44;4972576;28;7269;-60
2022/10/31 02:59:55;;;;;;;;;;;;;;;24.89;46.98;94680.19;4973166;28;7110;-60
2022/10/31 03:02:42;;;;;;;;;;;;;;;24.88;47.00;94675.22;4972949;28;7385;-60
2022/10/31 03:05:27;;;;;;;;;;;;;;;24.84;46.65;94678.19;5003157;28;8510;-60
2022/10/31 03:08:12;;;;;;;;;;;;;;;24.83;46.70;94675.94;5012082;28;9552;-60
2022/10/31 03:10:37;;;;;;;;;;;;;;;24.84;47.46;94677.47;4995533;28;7256;-60
2022/10/31 03:13:09;;;;;;;;;;;;;;;24.83;47.44;94675.94;5011242;28;11710;-60
2022/10/31 03:15:44;;;;;;;;;;;;;;;24.84;47.28;94671.97;4983996;28;7151;-60
2022/10/31 03:18:29;;;;;;;;;;;;;;;24.83;47.08;94662.19;5003398;28;7479;-60
2022/10/31 03:21:16;;;;;;;;;;;;;;;24.83;46.66;94664.94;5011593;28;7794;-60
2022/10/31 03:23:48;;;;;;;;;;;;;;;24.82;47.34;94666.94;4982088;28;9009;-60
2022/10/31 03:26:30;;;;;;;;;;;;;;;24.84;46.75;94666.47;4982841;28;7247;-60
2022/10/31 03:29:17;;;;;;;;;;;;;;;24.82;47.14;94669.69;5110025;28;7107;-60
2022/10/31 03:31:54;;;;;;;;;;;;;;;24.81;47.39;94668.19;5094596;28;9850;-60
2022/10/31 03:34:37;;;;;;;;;;;;;;;24.79;46.71;94665.19;5084075;28;7139;-60
2022/10/31 03:37:17;;;;;;;;;;;;;;;24.78;46.77;94666.44;5092477;28;7054;-60
2022/10/31 03:39:50;;;;;;;;;;;;;;;24.78;46.85;94655.44;5089107;28;7080;-60
2022/10/31 03:42:28;;;;;;;;;;;;;;;24.76;46.99;94652.44;5071742;28;8563;-60
2022/10/31 03:45:07;;;;;;;;;;;;;;;24.75;46.61;94653.66;5089207;28;7503;-60
2022/10/31 03:47:40;;;;;;;;;;;;;;;24.76;46.76;94648.91;5073150;28;7197;-60
2022/10/31 03:50:10;;;;;;;;;;;;;;;24.77;46.54;94653.19;5089994;28;6979;-60
2022/10/31 03:52:57;;;;;;;;;;;;;;;24.78;47.27;94651.94;5073566;28;7263;-60
2022/10/31 03:55:47;;;;;;;;;;;;;;;24.78;47.08;94646.41;5072242;28;7321;-60
2022/10/31 03:58:27;;;;;;;;;;;;;;;24.78;47.08;94646.41;5073399;28;10706;-60
2022/10/31 04:00:57;;;;;;;;;;;;;;;24.76;46.48;94638.69;5075411;28;9078;-60
2022/10/31 04:03:54;;;;;;;;;;;;;;;24.78;46.41;94643.66;5078906;28;8664;-59
2022/10/31 04:06:27;;;;;;;;;;;;;;;24.77;46.67;94639.44;5012534;28;7271;-59
2022/10/31 04:09:01;;;;;;;;;;;;;;;24.77;47.17;94644.94;5030743;28;9405;-60
2022/10/31 04:11:36;;;;;;;;;;;;;;;24.74;46.96;94641.16;5030908;28;7175;-60
2022/10/31 04:14:06;;;;;;;;;;;;;;;24.75;46.75;94642.66;5014178;28;7410;-60
2022/10/31 04:16:35;;;;;;;;;;;;;;;24.77;46.61;94653.19;5026373;28;7343;-59
2022/10/31 04:19:01;;;;;;;;;;;;;;;24.73;46.95;94640.41;5026092;28;6971;-60
2022/10/31 04:21:31;;;;;;;;;;;;;;;24.73;47.02;94641.66;5021936;28;6977;-60
2022/10/31 04:24:08;;;;;;;;;;;;;;;24.73;46.66;94636.16;5014021;28;7386;-59
2022/10/31 04:26:36;;;;;;;;;;;;;;;24.73;46.82;94638.91;5030184;28;7023;-59
2022/10/31 04:29:02;;;;;;;;;;;;;;;24.72;46.82;94640.91;5029114;28;7420;-60
2022/10/31 04:31:39;;;;;;;;;;;;;;;24.72;47.13;94638.16;5028499;28;7234;-59
2022/10/31 04:34:14;;;;;;;;;;;;;;;24.69;46.85;94639.91;5006125;28;8187;-59
2022/10/31 04:36:49;;;;;;;;;;;;;;;24.73;47.37;94633.41;5030644;28;7373;-59
2022/10/31 04:39:15;;;;;;;;;;;;;;;24.71;46.41;94629.13;5029792;28;7265;-59
2022/10/31 04:41:50;;;;;;;;;;;;;;;24.72;46.49;94638.16;5017658;28;9022;-59
2022/10/31 04:44:18;;;;;;;;;;;;;;;24.73;46.85;94622.41;5084364;28;7315;-59
2022/10/31 04:46:46;;;;;;;;;;;;;;;24.71;47.04;94618.13;5085124;28;6989;-59
2022/10/31 04:49:14;;;;;;;;;;;;;;;24.70;47.13;94619.41;5086496;28;7780;-59
2022/10/31 04:51:40;;;;;;;;;;;;;;;24.71;46.88;94620.13;5073771;28;7206;-59
2022/10/31 04:54:06;;;;;;;;;;;;;;;24.68;46.86;94616.38;5090969;28;7179;-59
2022/10/31 04:56:39;;;;;;;;;;;;;;;24.70;46.66;94615.91;5075433;28;7291;-59
2022/10/31 04:59:06;;;;;;;;;;;;;;;24.69;46.61;94615.13;5079689;28;7318;-59
2022/10/31 05:01:32;;;;;;;;;;;;;;;24.69;46.24;94614.38;5075243;28;7965;-60
2022/10/31 05:04:03;;;;;;;;;;;;;;;24.69;47.21;94617.13;5082277;28;7565;-59
2022/10/31 05:06:30;;;;;;;;;;;;;;;24.67;46.36;94616.88;5092464;28;7322;-59
2022/10/31 05:09:05;;;;;;;;;;;;;;;24.63;46.67;94608.88;5092341;28;6973;-59
2022/10/31 05:11:39;;;;;;;;;;;;;;;24.63;46.80;94603.38;5076309;28;8714;-59
2022/10/31 05:14:05;;;;;;;;;;;;;;;24.63;47.13;94619.88;5076354;28;7226;-60
2022/10/31 05:16:31;;;;;;;;;;;;;;;24.64;46.68;94615.16;5091927;28;7041;-59
2022/10/31 05:19:02;;;;;;;;;;;;;;;24.62;46.75;94607.38;5092002;28;6976;-59
2022/10/31 05:21:47;;;;;;;;;;;;;;;24.63;46.63;94602.63;5076841;28;8787;-60
2022/10/31 05:24:29;;;;;;;;;;;;;;;24.59;46.61;94604.88;5093608;28;7102;-59
2022/10/31 05:26:56;;;;;;;;;;;;;;;24.57;46.84;94610.13;5097141;28;9652;-60
2022/10/31 05:29:33;;;;;;;;;;;;;;;24.57;47.46;94605.38;5094496;28;7057;-60
2022/10/31 05:32:16;;;;;;;;;;;;;;;24.55;47.09;94596.91;5099582;28;8881;-59
2022/10/31 05:34:46;;;;;;;;;;;;;;;24.56;47.35;94598.38;5079709;28;7464;-59
2022/10/31 05:37:30;;;;;;;;;;;;;;;24.57;46.48;94604.63;5095862;28;7372;-59
2022/10/31 05:39:56;;;;;;;;;;;;;;;24.56;47.34;94594.88;5090701;28;7090;-60
2022/10/31 05:42:32;;;;;;;;;;;;;;;24.57;46.74;94588.91;5080957;28;8771;-60
2022/10/31 05:45:08;;;;;;;;;;;;;;;24.58;46.63;94584.88;5104015;28;7376;-59
2022/10/31 05:47:38;;;;;;;;;;;;;;;24.58;46.71;94584.13;5081001;28;7404;-59
2022/10/31 05:50:15;;;;;;;;;;;;;;;24.57;46.90;94575.13;5079239;28;7196;-60
2022/10/31 05:53:00;;;;;;;;;;;;;;;24.58;46.43;94567.63;5082970;28;7279;-60
2022/10/31 05:55:32;;;;;;;;;;;;;;;24.58;46.47;94576.63;5074449;28;7206;-60
2022/10/31 05:57:58;;;;;;;;;;;;;;;24.56;46.85;94576.38;5088300;28;7063;-59
2022/10/31 06:00:34;;;;;;;;;;;;;;;24.52;47.18;94564.88;5081823;28;7930;-59
2022/10/31 06:03:07;;;;;;;;;;;;;;;24.50;46.87;94561.88;5084639;28;9331;-60
2022/10/31 06:05:36;;;;;;;;;;;;;;;24.52;47.33;94573.13;5084971;28;7129;-59
2022/10/31 06:08:25;;;;;;;;;;;;;;;24.53;47.11;94585.63;5087721;28;9178;-59
2022/10/31 06:11:00;;;;;;;;;;;;;;;24.51;47.80;94590.88;5088822;28;9398;-59
2022/10/31 06:13:26;;;;;;;;;;;;;;;24.51;47.67;94588.13;5102187;28;7151;-59
2022/10/31 06:15:54;;;;;;;;;;;;;;;24.52;47.44;94586.88;5088647;28;6918;-60
2022/10/31 06:18:20;;;;;;;;;;;;;;;24.52;47.06;94591.63;5089666;28;8579;-59
2022/10/31 06:20:49;;;;;;;;;;;;;;;24.50;47.28;94594.88;5099081;28;7245;-60
2022/10/31 06:23:19;;;;;;;;;;;;;;;24.49;47.03;94596.13;5080138;28;9487;-59
2022/10/31 06:25:55;;;;;;;;;;;;;;;24.52;47.04;94597.88;5079465;28;7271;-59
2022/10/31 06:28:32;;;;;;;;;;;;;;;24.52;48.77;94595.13;5089545;28;7267;-59
2022/10/31 06:31:00;;;;;;;;;;;;;;;24.52;47.46;94597.13;5097434;28;7230;-59
2022/10/31 06:33:26;;;;;;;;;;;;;;;24.53;47.17;94599.38;5076819;28;6874;-59
2022/10/31 06:35:57;;;;;;;;;;;;;;;24.54;47.49;94597.38;5083654;28;9424;-59
2022/10/31 06:38:26;;;;;;;;;;;;;;;24.54;46.93;94597.38;5081339;28;6977;-60
2022/10/31 06:41:21;;;;;;;;;;;;;;;24.55;46.96;94590.63;5090908;27;7329;-60
2022/10/31 06:43:47;;;;;;;;;;;;;;;24.55;46.88;94596.91;5007889;28;9287;-59
2022/10/31 06:46:16;;;;;;;;;;;;;;;24.52;47.02;94589.63;5016212;28;6848;-60
2022/10/31 06:48:44;;;;;;;;;;;;;;;24.55;46.87;94601.63;5008572;28;8078;-59
2022/10/31 06:51:23;;;;;;;;;;;;;;;24.53;47.16;94598.63;5012327;28;8250;-60
2022/10/31 06:54:00;;;;;;;;;;;;;;;24.52;47.21;94597.88;5020355;28;7068;-59
2022/10/31 06:56:47;;;;;;;;;;;;;;;24.51;47.72;94590.88;5000145;28;7084;-59
2022/10/31 06:59:32;;;;;;;;;;;;;;;24.52;47.68;94597.88;5009033;28;9509;-59
2022/10/31 07:02:09;;;;;;;;;;;;;;;24.52;47.25;94608.88;5024442;28;7264;-60
2022/10/31 07:04:55;;;;;;;;;;;;;;;24.51;47.08;94599.13;5028137;28;7255;-59
2022/10/31 07:07:32;;;;;;;;;;;;;;;24.50;47.32;94589.38;5005115;28;8033;-59
2022/10/31 07:10:08;;;;;;;;;;;;;;;24.48;47.22;94605.63;5004612;28;8733;-59
2022/10/31 07:12:43;;;;;;;;;;;;;;;24.49;47.85;94601.63;5006974;28;9598;-60
2022/10/31 07:15:09;;;;;;;;;;;;;;;24.50;47.25;94610.63;5029980;28;9317;-60
2022/10/31 07:17:35;;;;;;;;;;;;;;;24.49;46.96;94604.38;5031370;28;8342;-59
2022/10/31 07:20:01;;;;;;;;;;;;;;;24.51;47.28;94610.13;5032284;28;9066;-60
2022/10/31 07:22:39;;;;;;;;;;;;;;;24.51;47.63;94606.63;5081291;27;8018;-59
2022/10/31 07:25:10;;;;;;;;;;;;;;;24.50;47.44;94605.88;5089171;28;9079;-60
2022/10/31 07:28:05;;;;;;;;;;;;;;;24.50;47.02;94608.63;5086008;28;7255;-59
2022/10/31 07:30:34;;;;;;;;;;;;;;;24.50;47.44;94599.63;5019411;28;7222;-60
2022/10/31 07:33:11;;;;;;;;;;;;;;;24.49;47.67;94611.88;5020351;28;9493;-60
2022/10/31 07:35:50;;;;;;;;;;;;;;;24.47;47.69;94608.84;5020332;28;9363;-60
2022/10/31 07:38:32;;;;;;;;;;;;;;;24.46;47.38;94613.63;5012070;28;7626;-60
2022/10/31 07:41:08;;;;;;;;;;;;;;;24.44;47.36;94613.38;5025283;28;7217;-59
2022/10/31 07:43:35;;;;;;;;;;;;;;;24.45;47.75;94612.13;5016237;28;9199;-60
2022/10/31 07:46:03;;;;;;;;;;;;;;;24.46;46.90;94621.13;5030105;28;7231;-59
2022/10/31 07:48:29;;;;;;;;;;;;;;;24.46;47.84;94612.88;5017717;28;7881;-59
2022/10/31 07:51:30;;;;;;;;;;;;;;;24.46;47.03;94615.63;5027792;28;9097;-60
2022/10/31 07:54:06;;;;;;;;;;;;;;;24.45;47.83;94620.34;5024188;28;7305;-59
2022/10/31 07:56:40;;;;;;;;;;;;;;;24.47;47.55;94617.09;5018409;28;9042;-59
2022/10/31 07:59:06;;;;;;;;;;;;;;;24.47;47.35;94620.63;5022022;28;7576;-59
2022/10/31 08:01:36;;;;;;;;;;;;;;;24.46;47.86;94616.38;5004271;28;7131;-59
2022/10/31 08:04:04;;;;;;;;;;;;;;;24.43;48.04;94617.34;5024601;28;10404;-59
2022/10/31 08:06:31;;;;;;;;;;;;;;;24.46;47.68;94618.38;5043796;28;9211;-59
2022/10/31 08:08:57;;;;;;;;;;;;;;;24.47;47.17;94612.38;5080146;28;9054;-59
2022/10/31 08:11:23;;;;;;;;;;;;;;;24.47;47.58;94612.38;5076940;28;7135;-59
2022/10/31 08:13:51;;;;;;;;;;;;;;;24.46;47.23;94610.88;5071247;28;7233;-59
2022/10/31 08:16:19;;;;;;;;;;;;;;;24.46;47.52;94616.38;5076366;28;7217;-60
2022/10/31 08:18:45;;;;;;;;;;;;;;;24.46;47.35;94618.38;5080382;28;7036;-59
2022/10/31 08:21:11;;;;;;;;;;;;;;;24.45;47.31;94609.38;5073996;28;7224;-59
2022/10/31 08:23:37;;;;;;;;;;;;;;;24.46;47.72;94610.13;5077123;28;7220;-59
2022/10/31 08:26:03;;;;;;;;;;;;;;;24.46;47.23;94615.63;5081447;28;9192;-59
2022/10/31 08:28:31;;;;;;;;;;;;;;;24.48;47.08;94610.38;5076783;28;9703;-58
2022/10/31 08:30:59;;;;;;;;;;;;;;;24.47;47.10;94611.59;5085357;28;7002;-59
2022/10/31 08:33:34;;;;;;;;;;;;;;;24.44;47.40;94605.13;5086273;28;7537;-60
2022/10/31 08:36:01;;;;;;;;;;;;;;;24.45;47.37;94603.88;5076097;28;9005;-60
2022/10/31 08:38:32;;;;;;;;;;;;;;;24.43;48.07;94614.59;5090083;28;7151;-59
2022/10/31 08:41:02;;;;;;;;;;;;;;;24.42;47.63;94618.63;5088515;28;7259;-59
2022/10/31 08:43:30;;;;;;;;;;;;;;;24.43;47.54;94611.09;5082226;28;7212;-59
2022/10/31 08:46:06;;;;;;;;;;;;;;;24.44;47.74;94610.63;5081956;28;9040;-59
2022/10/31 08:48:37;;;;;;;;;;;;;;;24.45;47.12;94603.09;5076930;28;7893;-59
2022/10/31 08:51:03;;;;;;;;;;;;;;;24.45;47.33;94603.09;5089002;28;7429;-59
2022/10/31 08:53:49;;;;;;;;;;;;;;;24.43;47.37;94606.38;5097268;28;7160;-59
2022/10/31 08:56:22;;;;;;;;;;;;;;;24.42;47.38;94599.38;5079830;28;9098;-60
2022/10/31 08:58:53;;;;;;;;;;;;;;;24.44;48.12;94607.88;5084405;28;7402;-60
2022/10/31 09:01:22;;;;;;;;;;;;;;;24.43;47.46;94617.34;5074346;28;7332;-59
2022/10/31 09:03:50;;;;;;;;;;;;;;;24.43;47.82;94611.84;5103201;28;7601;-60
2022/10/31 09:06:19;;;;;;;;;;;;;;;24.41;47.61;94603.34;5079506;28;7374;-60
2022/10/31 09:08:45;;;;;;;;;;;;;;;24.42;47.47;94612.38;5081118;28;7400;-60
2022/10/31 09:11:11;;;;;;;;;;;;;;;24.43;48.04;94619.34;5080177;28;7144;-60
2022/10/31 09:13:39;;;;;;;;;;;;;;;24.46;47.45;94615.63;5086899;28;7247;-60
2022/10/31 09:16:08;;;;;;;;;;;;;;;24.47;47.59;94617.88;5083683;28;7167;-59
2022/10/31 09:18:34;;;;;;;;;;;;;;;24.48;47.36;94608.38;5084844;28;7241;-60
2022/10/31 09:21:09;;;;;;;;;;;;;;;24.48;47.91;94619.38;5075174;28;7235;-59
2022/10/31 09:23:39;;;;;;;;;;;;;;;24.47;47.54;94611.59;5080566;28;8161;-59
2022/10/31 09:26:06;;;;;;;;;;;;;;;24.44;47.65;94605.13;5071791;28;6996;-60
2022/10/31 09:28:33;;;;;;;;;;;;;;;24.47;47.66;94601.38;5090401;28;7071;-59
2022/10/31 09:31:01;;;;;;;;;;;;;;;24.49;47.44;94607.13;5074142;28;7241;-59
2022/10/31 09:33:27;;;;;;;;;;;;;;;24.49;47.82;94598.13;5084980;28;7532;-59
2022/10/31 09:35:53;;;;;;;;;;;;;;;24.48;47.70;94600.13;5084043;28;9137;-59
2022/10/31 09:38:21;;;;;;;;;;;;;;;24.49;47.78;94600.88;5086010;28;6986;-59
2022/10/31 09:40:55;;;;;;;;;;;;;;;24.49;47.97;94592.63;5086147;28;9440;-60
2022/10/31 09:43:56;;;;;;;;;;;;;;;24.50;48.21;94603.13;5082816;28;8478;-59
2022/10/31 09:46:41;;;;;;;;;;;;;;;24.50;48.06;94599.63;5084795;28;7506;-59
2022/10/31 09:49:42;;;;;;;;;;;;;;;24.50;48.24;94602.38;5092198;28;7329;-59
2022/10/31 09:52:51;;;;;;;;;;;;;;;24.52;47.38;94591.63;5089714;28;8172;-59
2022/10/31 09:55:29;;;;;;;;;;;;;;;24.50;47.40;94594.88;5083364;28;7728;-60
2022/10/31 09:58:28;;;;;;;;;;;;;;;24.49;47.69;94590.63;5084608;28;7103;-59
2022/10/31 10:01:27;;;;;;;;;;;;;;;24.50;47.47;94583.88;5103597;28;7707;-60
2022/10/31 10:04:17;;;;;;;;;;;;;;;24.51;47.20;94581.88;5079279;28;7476;-60
2022/10/31 10:07:03;;;;;;;;;;;;;;;24.53;47.77;94580.13;5031053;28;7298;-60
2022/10/31 10:09:30;;;;;;;;;;;;;;;24.54;47.43;94575.38;5048150;28;7580;-60
2022/10/31 10:12:47;;;;;;;;;;;;;;;24.52;47.86;94586.88;5035650;28;8858;-60
2022/10/31 10:15:36;;;;;;;;;;;;;;;24.52;47.75;94575.88;4993617;28;7220;-60
2022/10/31 10:19:00;;;;;;;;;;;;;;;24.47;47.95;94562.88;4995214;28;8189;-60
2022/10/31 10:21:50;;;;;;;;;;;;;;;24.55;47.26;94574.13;4931256;28;7161;-60
2022/10/31 10:24:42;;;;;;;;;;;;;;;24.57;47.99;94571.63;4968334;28;7617;-57
2022/10/31 10:27:19;;;;;;;;;;;;;;;24.55;48.01;94574.91;4968008;28;6986;-59
2022/10/31 10:30:20;;;;;;;;;;;;;;;24.55;47.63;94574.91;4946599;28;9204;-59
2022/10/31 10:32:57;;;;;;;;;;;;;;;24.55;47.65;94574.91;4949277;28;9415;-60
2022/10/31 10:35:38;;;;;;;;;;;;;;;24.56;47.15;94573.63;4938116;28;7010;-60
2022/10/31 10:38:03;;;;;;;;;;;;;;;24.59;47.22;94566.38;4938496;28;7245;-59
2022/10/31 10:40:31;;;;;;;;;;;;;;;24.54;47.86;94565.13;4937618;28;7062;-59
2022/10/31 10:43:23;;;;;;;;;;;;;;;24.56;47.16;94568.13;4948142;28;6982;-59
2022/10/31 10:49:04;;;;;;;;;;;;;;;24.54;47.85;94559.63;4941987;28;7407;-59
2022/10/31 10:51:48;;;;;;;;;;;;;;;24.56;48.11;94559.88;4988176;28;9027;-60
2022/10/31 10:54:24;;;;;;;;;;;;;;;24.56;47.10;94554.38;5022419;28;6941;-59
2022/10/31 10:57:17;;;;;;;;;;;;;;;24.59;47.90;94553.38;5034645;28;7624;-60
2022/10/31 10:59:58;;;;;;;;;;;;;;;24.61;47.22;94550.88;5086787;28;7232;-59
2022/10/31 11:02:34;;;;;;;;;;;;;;;24.63;47.03;94553.13;5088623;28;7323;-59
2022/10/31 11:05:13;;;;;;;;;;;;;;;24.64;47.06;94546.38;5085252;28;9459;-59
2022/10/31 11:07:46;;;;;;;;;;;;;;;24.64;47.77;94552.63;5091492;28;7113;-59
2022/10/31 11:10:14;;;;;;;;;;;;;;;24.65;46.89;94556.13;5075804;28;9314;-59
2022/10/31 11:12:44;;;;;;;;;;;;;;;24.65;47.17;94564.38;5082085;28;8527;-59
2022/10/31 11:15:22;;;;;;;;;;;;;;;24.60;47.63;94554.88;5073084;28;7373;-59
2022/10/31 11:17:52;;;;;;;;;;;;;;;24.59;47.73;94545.13;5073733;28;8834;-59
2022/10/31 11:20:30;;;;;;;;;;;;;;;24.60;47.05;94546.63;5083114;28;7174;-59
2022/10/31 11:23:16;;;;;;;;;;;;;;;24.62;47.34;94541.38;5080255;28;8518;-59
2022/10/31 11:25:59;;;;;;;;;;;;;;;24.58;47.21;94535.38;5076411;28;8174;-59
2022/10/31 11:28:36;;;;;;;;;;;;;;;24.59;47.26;94533.38;5079325;28;7297;-59
2022/10/31 11:31:13;;;;;;;;;;;;;;;24.59;47.26;94530.63;5079638;28;7004;-60
2022/10/31 11:34:04;;;;;;;;;;;;;;;24.60;47.45;94535.63;5091793;28;7175;-59
2022/10/31 11:36:37;;;;;;;;;;;;;;;24.62;47.42;94535.88;5083035;28;7945;-59
2022/10/31 11:39:21;;;;;;;;;;;;;;;24.61;47.55;94531.63;5086725;28;7112;-60
2022/10/31 11:42:03;;;;;;;;;;;;;;;24.62;47.73;94524.88;5080585;28;6894;-59
2022/10/31 11:44:44;;;;;;;;;;;;;;;24.62;47.85;94526.91;5089307;28;7075;-59
2022/10/31 11:47:27;;;;;;;;;;;;;;;24.63;47.35;94526.38;5072178;28;7006;-59
2022/10/31 11:49:57;;;;;;;;;;;;;;;24.63;47.55;94518.13;5081749;28;7456;-59
2022/10/31 11:52:40;;;;;;;;;;;;;;;24.62;47.88;94513.88;5057902;28;7429;-58
2022/10/31 11:55:40;;;;;;;;;;;;;;;24.62;47.31;94516.63;5084525;28;7276;-59
2022/10/31 11:58:22;;;;;;;;;;;;;;;24.64;47.37;94516.88;5079367;28;7226;-59
2022/10/31 12:00:51;;;;;;;;;;;;;;;24.65;48.21;94501.88;5071954;28;9501;-59
2022/10/31 12:03:59;;;;;;;;;;;;;;;24.67;47.31;94504.13;5089199;28;9509;-60
2022/10/31 12:06:40;;;;;;;;;;;;;;;24.66;47.91;94503.38;5008094;28;7506;-59
2022/10/31 12:09:27;;;;;;;;;;;;;;;24.66;47.87;94486.13;5022271;28;7649;-60
2022/10/31 12:12:11;;;;;;;;;;;;;;;24.67;47.80;94484.88;5018918;28;7128;-59
2022/10/31 12:15:12;;;;;;;;;;;;;;;24.69;47.73;94482.38;5008862;28;9513;-60
2022/10/31 12:17:41;;;;;;;;;;;;;;;24.72;47.74;94467.63;5006378;28;7525;-59
2022/10/31 12:20:37;;;;;;;;;;;;;;;24.74;48.51;94470.63;5023535;28;7225;-59
2022/10/31 12:23:20;;;;;;;;;;;;;;;24.76;48.25;94468.13;5022809;28;7286;-59
2022/10/31 12:26:13;;;;;;;;;;;;;;;24.78;47.83;94462.13;5024493;28;7155;-59
2022/10/31 12:29:05;;;;;;;;;;;;;;;24.79;47.66;94455.38;5007392;28;6994;-59
2022/10/31 12:32:01;;;;;;;;;;;;;;;24.80;47.99;94452.13;5025990;28;7220;-59
2022/10/31 12:34:46;;;;;;;;;;;;;;;24.82;47.69;94449.59;5008215;28;7261;-59
2022/10/31 12:37:39;;;;;;;;;;;;;;;24.84;48.21;94441.59;5007354;28;9040;-59
2022/10/31 12:40:11;;;;;;;;;;;;;;;24.84;48.32;94441.59;5022183;28;7404;-59
2022/10/31 12:42:43;;;;;;;;;;;;;;;24.86;47.89;94443.88;5064753;28;7309;-59
2022/10/31 12:46:05;;;;;;;;;;;;;;;24.87;47.95;94443.34;5079920;28;9481;-59
2022/10/31 12:48:59;;;;;;;;;;;;;;;24.87;48.56;94437.84;5026086;28;7300;-59
2022/10/31 12:52:02;;;;;;;;;;;;;;;24.91;48.96;94423.81;5038455;28;7119;-59
2022/10/31 12:54:47;;;;;;;;;;;;;;;24.90;48.91;94417.59;5038874;28;7408;-59
2022/10/31 12:57:27;;;;;;;;;;;;;;;24.93;48.32;94415.81;5043787;28;7759;-59
2022/10/31 13:00:17;;;;;;;;;;;;;;;24.94;48.75;94411.81;5044585;28;7345;-59
2022/10/31 13:03:23;;;;;;;;;;;;;;;24.94;49.08;94401.56;5026351;28;9541;-59
2022/10/31 13:06:04;;;;;;;;;;;;;;;24.97;48.77;94399.81;4992270;28;6979;-59
2022/10/31 13:08:44;;;;;;;;;;;;;;;24.99;48.73;94400.78;4994639;28;7536;-59
2022/10/31 13:11:51;;;;;;;;;;;;;;;25.01;48.99;94389.28;4996537;28;7420;-59
2022/10/31 13:14:49;;;;;;;;;;;;;;;25.04;49.00;94385.50;4972066;28;7277;-59
2022/10/31 13:17:27;;;;;;;;;;;;;;;25.05;48.08;94374.00;4934605;29;7483;-60
2022/10/31 13:20:21;;;;;;;;;;;;;;;25.08;48.57;94366.72;4936915;28;6970;-59
2022/10/31 13:23:11;;;;;;;;;;;;;;;25.10;48.30;94367.72;4891621;29;8566;-60
2022/10/31 13:25:58;;;;;;;;;;;;;;;25.13;48.49;94374.19;4911953;29;8080;-60
2022/10/31 13:28:38;;;;;;;;;;;;;;;25.11;48.51;94360.97;4919591;29;6974;-60
2022/10/31 13:31:05;;;;;;;;;;;;;;;25.16;48.25;94367.69;4904940;29;7174;-60
2022/10/31 13:34:10;;;;;;;;;;;;;;;25.17;48.19;94363.66;4915465;29;7465;-59
2022/10/31 13:36:45;;;;;;;;;;;;;;;25.17;48.37;94353.41;4918881;29;7791;-59
2022/10/31 13:39:29;;;;;;;;;;;;;;;25.24;48.15;94363.13;4894375;29;7046;-59
2022/10/31 13:42:22;;;;;;;;;;;;;;;25.27;48.16;94351.84;4910236;28;7369;-59
2022/10/31 13:44:48;;;;;;;;;;;;;;;25.30;48.36;94350.09;4930380;28;6994;-59
2022/10/31 13:47:29;;;;;;;;;;;;;;;25.31;48.81;94354.34;4924664;28;7290;-59
2022/10/31 13:50:28;;;;;;;;;;;;;;;25.34;48.03;94339.53;4927415;28;7225;-59
2022/10/31 13:53:20;;;;;;;;;;;;;;;25.36;48.59;94334.28;4978253;28;7385;-59
2022/10/31 13:55:48;;;;;;;;;;;;;;;25.39;48.29;94342.28;5001560;28;7303;-59
2022/10/31 13:58:23;;;;;;;;;;;;;;;25.43;48.28;94333.75;5019581;28;7020;-59